sensor_id;sensor_type;location;lat;lon;timestamp;pressure;altitude;pressure_sealevel;temperature;humidity
7824;BME280;3957;48.61947800;9.05303100;2023-07-16T00:00:30;96055.13;;;17.46;100.00
7824;BME280;3957;48.61947800;9.05303100;2023-07-16T00:01:32;96048.16;;;17.33;100.00
7824;BME280;3957;48.61947800;9.05303100;2023-07-16T00:02:34;96045.28;;;17.40;100.00
7824;BME280;3957;48.61947800;9.05303100;2023-07-16T00:03:36;96045.28;;;17.40;100.00
7824;BME280;3957;48.61947800;9.05303100;2023-07-16T00:04:37;96056.44;;;17.43;100.00
7824;BME280;3957;48.61947800;9.05303100;2023-07-16T00:05:39;96063.75;;;17.43;100.00
7824;BME280;3957;48.61947800;9.05303100;2023-07-16T00:06:40;96061.25;;;17.41;100.00
7824;BME280;3957;48.61947800;9.05303100;2023-07-16T00:07:42;96068.31;;;17.42;100.00
7824;BME280;3957;48.61947800;9.05303100;2023-07-16T00:08:44;96063.91;;;17.36;100.00
7824;BME280;3957;48.61947800;9.05303100;2023-07-16T00:09:45;96060.97;;;17.38;100.00
7824;BME280;3957;48.61947800;9.05303100;2023-07-16T00:10:47;96054.72;;;17.37;100.00
7824;BME280;3957;48.61947800;9.05303100;2023-07-16T00:11:48;96050.63;;;17.34;100.00
7824;BME280;3957;48.61947800;9.05303100;2023-07-16T00:12:50;96030.63;;;17.36;100.00
7824;BME280;3957;48.61947800;9.05303100;2023-07-16T00:13:51;96032.84;;;17.39;100.00
7824;BME280;3957;48.61947800;9.05303100;2023-07-16T00:14:53;96027.91;;;17.36;100.00
7824;BME280;3957;48.61947800;9.05303100;2023-07-16T00:15:55;96033.16;;;17.42;100.00
7824;BME280;3957;48.61947800;9.05303100;2023-07-16T00:16:57;96025.88;;;17.43;100.00
7824;BME280;3957;48.61947800;9.05303100;2023-07-16T00:17:59;96032.91;;;17.44;100.00
7824;BME280;3957;48.61947800;9.05303100;2023-07-16T00:19:01;96039.97;;;17.45;100.00
7824;BME280;3957;48.61947800;9.05303100;2023-07-16T00:20:03;96034.47;;;17.40;100.00
7824;BME280;3957;48.61947800;9.05303100;2023-07-16T00:21:06;96036.09;;;17.41;100.00
7824;BME280;3957;48.61947800;9.05303100;2023-07-16T00:22:07;96041.25;;;17.42;100.00
7824;BME280;3957;48.61947800;9.05303100;2023-07-16T00:23:09;96040.13;;;17.38;100.00
7824;BME280;3957;48.61947800;9.05303100;2023-07-16T00:24:10;96043.34;;;17.35;100.00
7824;BME280;3957;48.61947800;9.05303100;2023-07-16T00:25:12;96051.13;;;17.31;100.00
7824;BME280;3957;48.61947800;9.05303100;2023-07-16T00:26:13;96048.66;;;17.30;100.00
7824;BME280;3957;48.61947800;9.05303100;2023-07-16T00:27:16;96047.00;;;17.29;100.00
7824;BME280;3957;48.61947800;9.05303100;2023-07-16T00:28:17;96055.72;;;17.31;100.00
7824;BME280;3957;48.61947800;9.05303100;2023-07-16T00:29:19;96053.00;;;17.31;100.00
7824;BME280;3957;48.61947800;9.05303100;2023-07-16T00:30:20;96055.47;;;17.32;100.00
7824;BME280;3957;48.61947800;9.05303100;2023-07-16T00:31:22;96054.41;;;17.33;100.00
7824;BME280;3957;48.61947800;9.05303100;2023-07-16T00:32:24;96056.59;;;17.37;100.00
7824;BME280;3957;48.61947800;9.05303100;2023-07-16T00:33:25;96058.50;;;17.36;100.00
7824;BME280;3957;48.61947800;9.05303100;2023-07-16T00:34:27;96067.44;;;17.37;100.00
7824;BME280;3957;48.61947800;9.05303100;2023-07-16T00:35:28;96054.16;;;17.35;100.00
7824;BME280;3957;48.61947800;9.05303100;2023-07-16T00:36:30;96055.53;;;17.38;100.00
7824;BME280;3957;48.61947800;9.05303100;2023-07-16T00:37:33;96064.97;;;17.35;100.00
7824;BME280;3957;48.61947800;9.05303100;2023-07-16T00:38:35;96069.06;;;17.38;100.00
7824;BME280;3957;48.61947800;9.05303100;2023-07-16T00:39:37;96075.28;;;17.38;100.00
7824;BME280;3957;48.61947800;9.05303100;2023-07-16T00:40:38;96067.44;;;17.37;100.00
7824;BME280;3957;48.61947800;9.05303100;2023-07-16T00:41:40;96058.50;;;17.36;100.00
7824;BME280;3957;48.61947800;9.05303100;2023-07-16T00:42:41;96056.53;;;17.31;100.00
7824;BME280;3957;48.61947800;9.05303100;2023-07-16T00:43:44;96055.13;;;17.29;100.00
7824;BME280;3957;48.61947800;9.05303100;2023-07-16T00:44:46;96050.56;;;17.29;100.00
7824;BME280;3957;48.61947800;9.05303100;2023-07-16T00:45:49;96048.41;;;17.31;100.00
7824;BME280;3957;48.61947800;9.05303100;2023-07-16T00:46:51;96063.03;;;17.30;100.00
7824;BME280;3957;48.61947800;9.05303100;2023-07-16T00:47:52;96065.94;;;17.29;100.00
7824;BME280;3957;48.61947800;9.05303100;2023-07-16T00:48:54;96080.31;;;17.29;100.00
7824;BME280;3957;48.61947800;9.05303100;2023-07-16T00:49:57;96074.31;;;17.27;100.00
7824;BME280;3957;48.61947800;9.05303100;2023-07-16T00:51:00;96070.22;;;17.25;100.00
7824;BME280;3957;48.61947800;9.05303100;2023-07-16T00:52:03;96068.25;;;17.20;100.00
7824;BME280;3957;48.61947800;9.05303100;2023-07-16T00:53:06;96058.03;;;17.22;100.00
7824;BME280;3957;48.61947800;9.05303100;2023-07-16T00:54:09;96061.53;;;17.23;100.00
7824;BME280;3957;48.61947800;9.05303100;2023-07-16T00:55:10;96063.91;;;17.19;100.00
7824;BME280;3957;48.61947800;9.05303100;2023-07-16T00:56:16;96069.25;;;17.14;100.00
7824;BME280;3957;48.61947800;9.05303100;2023-07-16T00:57:18;96070.47;;;17.06;100.00
7824;BME280;3957;48.61947800;9.05303100;2023-07-16T00:58:20;96068.75;;;17.00;100.00
7824;BME280;3957;48.61947800;9.05303100;2023-07-16T00:59:21;96075.31;;;17.04;100.00
7824;BME280;3957;48.61947800;9.05303100;2023-07-16T01:00:23;96080.72;;;17.04;100.00
7824;BME280;3957;48.61947800;9.05303100;2023-07-16T01:01:25;96086.69;;;17.06;100.00
7824;BME280;3957;48.61947800;9.05303100;2023-07-16T01:02:27;96092.19;;;17.11;100.00
7824;BME280;3957;48.61947800;9.05303100;2023-07-16T01:03:29;96085.28;;;17.04;100.00
7824;BME280;3957;48.61947800;9.05303100;2023-07-16T01:04:31;96086.84;;;16.99;100.00
7824;BME280;3957;48.61947800;9.05303100;2023-07-16T01:06:44;96081.72;;;16.86;100.00
7824;BME280;3957;48.61947800;9.05303100;2023-07-16T01:07:55;96078.44;;;16.67;100.00
7824;BME280;3957;48.61947800;9.05303100;2023-07-16T01:09:06;96082.56;;;16.58;100.00
7824;BME280;3957;48.61947800;9.05303100;2023-07-16T01:10:08;96083.78;;;16.50;100.00
7824;BME280;3957;48.61947800;9.05303100;2023-07-16T01:11:11;96083.34;;;16.41;100.00
7824;BME280;3957;48.61947800;9.05303100;2023-07-16T01:12:14;96081.41;;;16.25;100.00
7824;BME280;3957;48.61947800;9.05303100;2023-07-16T01:13:16;96086.25;;;16.23;100.00
7824;BME280;3957;48.61947800;9.05303100;2023-07-16T01:14:18;96088.47;;;16.14;100.00
7824;BME280;3957;48.61947800;9.05303100;2023-07-16T01:15:20;96082.03;;;16.03;100.00
7824;BME280;3957;48.61947800;9.05303100;2023-07-16T01:16:24;96076.22;;;15.94;100.00
7824;BME280;3957;48.61947800;9.05303100;2023-07-16T01:17:26;96080.56;;;15.95;100.00
7824;BME280;3957;48.61947800;9.05303100;2023-07-16T01:18:28;96080.81;;;15.94;100.00
7824;BME280;3957;48.61947800;9.05303100;2023-07-16T01:19:30;96084.56;;;15.93;100.00
7824;BME280;3957;48.61947800;9.05303100;2023-07-16T01:20:31;96089.94;;;15.93;100.00
7824;BME280;3957;48.61947800;9.05303100;2023-07-16T01:24:47;96095.91;;;15.95;100.00
7824;BME280;3957;48.61947800;9.05303100;2023-07-16T01:26:05;96105.34;;;15.92;100.00
7824;BME280;3957;48.61947800;9.05303100;2023-07-16T01:29:54;96116.25;;;15.86;100.00
7824;BME280;3957;48.61947800;9.05303100;2023-07-16T01:30:59;96112.47;;;15.87;100.00
7824;BME280;3957;48.61947800;9.05303100;2023-07-16T01:32:04;96115.66;;;15.84;100.00
7824;BME280;3957;48.61947800;9.05303100;2023-07-16T01:33:11;96108.16;;;15.86;100.00
7824;BME280;3957;48.61947800;9.05303100;2023-07-16T01:34:14;96094.41;;;15.87;100.00
7824;BME280;3957;48.61947800;9.05303100;2023-07-16T01:35:15;96087.50;;;15.79;100.00
7824;BME280;3957;48.61947800;9.05303100;2023-07-16T01:36:18;96083.16;;;15.78;100.00
7824;BME280;3957;48.61947800;9.05303100;2023-07-16T01:37:20;96097.94;;;15.76;100.00
7824;BME280;3957;48.61947800;9.05303100;2023-07-16T01:38:22;96106.38;;;15.79;100.00
7824;BME280;3957;48.61947800;9.05303100;2023-07-16T01:39:24;96105.19;;;15.75;100.00
7824;BME280;3957;48.61947800;9.05303100;2023-07-16T01:40:26;96105.19;;;15.75;100.00
7824;BME280;3957;48.61947800;9.05303100;2023-07-16T01:41:28;96106.38;;;15.68;100.00
7824;BME280;3957;48.61947800;9.05303100;2023-07-16T01:42:29;96106.00;;;15.64;100.00
7824;BME280;3957;48.61947800;9.05303100;2023-07-16T01:43:31;96108.94;;;15.62;100.00
7824;BME280;3957;48.61947800;9.05303100;2023-07-16T01:44:32;96101.44;;;15.64;100.00
7824;BME280;3957;48.61947800;9.05303100;2023-07-16T01:45:35;96094.88;;;15.60;100.00
7824;BME280;3957;48.61947800;9.05303100;2023-07-16T01:46:37;96081.63;;;15.59;100.00
7824;BME280;3957;48.61947800;9.05303100;2023-07-16T01:48:05;96082.69;;;15.58;100.00
7824;BME280;3957;48.61947800;9.05303100;2023-07-16T01:49:12;96095.09;;;15.59;100.00
7824;BME280;3957;48.61947800;9.05303100;2023-07-16T01:50:15;96090.06;;;15.51;100.00
7824;BME280;3957;48.61947800;9.05303100;2023-07-16T01:51:17;96096.19;;;15.46;100.00
7824;BME280;3957;48.61947800;9.05303100;2023-07-16T01:52:18;96094.88;;;15.48;100.00
7824;BME280;3957;48.61947800;9.05303100;2023-07-16T01:53:20;96092.53;;;15.40;100.00
7824;BME280;3957;48.61947800;9.05303100;2023-07-16T01:54:21;96090.78;;;15.46;100.00
7824;BME280;3957;48.61947800;9.05303100;2023-07-16T01:55:24;96090.31;;;15.49;100.00
7824;BME280;3957;48.61947800;9.05303100;2023-07-16T01:56:26;96095.69;;;15.49;100.00
7824;BME280;3957;48.61947800;9.05303100;2023-07-16T01:57:27;96103.78;;;15.49;100.00
7824;BME280;3957;48.61947800;9.05303100;2023-07-16T01:58:29;96097.59;;;15.48;100.00
7824;BME280;3957;48.61947800;9.05303100;2023-07-16T01:59:30;96097.81;;;15.47;100.00
7824;BME280;3957;48.61947800;9.05303100;2023-07-16T02:00:32;96097.81;;;15.47;100.00
7824;BME280;3957;48.61947800;9.05303100;2023-07-16T02:01:34;96089.50;;;15.48;100.00
7824;BME280;3957;48.61947800;9.05303100;2023-07-16T02:02:36;96092.19;;;15.48;100.00
7824;BME280;3957;48.61947800;9.05303100;2023-07-16T02:03:37;96082.94;;;15.44;100.00
7824;BME280;3957;48.61947800;9.05303100;2023-07-16T02:04:39;96084.81;;;15.44;100.00
7824;BME280;3957;48.61947800;9.05303100;2023-07-16T02:05:41;96074.59;;;15.46;100.00
7824;BME280;3957;48.61947800;9.05303100;2023-07-16T02:06:44;96077.28;;;15.46;100.00
7824;BME280;3957;48.61947800;9.05303100;2023-07-16T02:07:45;96078.69;;;15.37;100.00
7824;BME280;3957;48.61947800;9.05303100;2023-07-16T02:08:47;96069.91;;;15.29;100.00
7824;BME280;3957;48.61947800;9.05303100;2023-07-16T02:09:48;96074.00;;;15.32;100.00
7824;BME280;3957;48.61947800;9.05303100;2023-07-16T02:10:50;96077.19;;;15.29;100.00
7824;BME280;3957;48.61947800;9.05303100;2023-07-16T02:11:52;96082.09;;;15.32;100.00
7824;BME280;3957;48.61947800;9.05303100;2023-07-16T02:12:53;96091.00;;;15.33;100.00
7824;BME280;3957;48.61947800;9.05303100;2023-07-16T02:13:55;96096.28;;;15.27;100.00
7824;BME280;3957;48.61947800;9.05303100;2023-07-16T02:14:56;96110.69;;;15.21;100.00
7824;BME280;3957;48.61947800;9.05303100;2023-07-16T02:15:58;96119.72;;;15.27;100.00
7824;BME280;3957;48.61947800;9.05303100;2023-07-16T02:17:00;96124.19;;;15.33;100.00
7824;BME280;3957;48.61947800;9.05303100;2023-07-16T02:18:02;96106.25;;;15.15;100.00
7824;BME280;3957;48.61947800;9.05303100;2023-07-16T02:19:04;96101.66;;;15.16;100.00
7824;BME280;3957;48.61947800;9.05303100;2023-07-16T02:20:06;96096.16;;;15.22;100.00
7824;BME280;3957;48.61947800;9.05303100;2023-07-16T02:21:08;96080.56;;;15.12;100.00
7824;BME280;3957;48.61947800;9.05303100;2023-07-16T02:22:10;96065.44;;;15.11;100.00
7824;BME280;3957;48.61947800;9.05303100;2023-07-16T02:23:11;96062.75;;;15.11;100.00
7824;BME280;3957;48.61947800;9.05303100;2023-07-16T02:24:13;96058.06;;;15.07;100.00
7824;BME280;3957;48.61947800;9.05303100;2023-07-16T02:25:14;96055.13;;;15.08;100.00
7824;BME280;3957;48.61947800;9.05303100;2023-07-16T02:26:16;96052.56;;;15.02;100.00
7824;BME280;3957;48.61947800;9.05303100;2023-07-16T02:27:18;96059.94;;;15.06;100.00
7824;BME280;3957;48.61947800;9.05303100;2023-07-16T02:28:19;96073.91;;;15.15;100.00
7824;BME280;3957;48.61947800;9.05303100;2023-07-16T02:29:21;96090.75;;;15.10;100.00
7824;BME280;3957;48.61947800;9.05303100;2023-07-16T02:30:22;96110.31;;;15.06;100.00
7824;BME280;3957;48.61947800;9.05303100;2023-07-16T02:31:24;96107.03;;;15.04;100.00
7824;BME280;3957;48.61947800;9.05303100;2023-07-16T02:32:26;96108.31;;;15.01;100.00
7824;BME280;3957;48.61947800;9.05303100;2023-07-16T02:33:27;96098.84;;;14.99;100.00
7824;BME280;3957;48.61947800;9.05303100;2023-07-16T02:34:29;96097.75;;;15.00;100.00
7824;BME280;3957;48.61947800;9.05303100;2023-07-16T02:35:30;96095.44;;;15.03;100.00
7824;BME280;3957;48.61947800;9.05303100;2023-07-16T02:36:32;96112.53;;;14.97;100.00
7824;BME280;3957;48.61947800;9.05303100;2023-07-16T02:37:34;96121.28;;;14.92;100.00
7824;BME280;3957;48.61947800;9.05303100;2023-07-16T02:38:35;96113.53;;;14.84;100.00
7824;BME280;3957;48.61947800;9.05303100;2023-07-16T02:39:38;96115.06;;;14.80;100.00
7824;BME280;3957;48.61947800;9.05303100;2023-07-16T02:40:47;96121.28;;;14.81;100.00
7824;BME280;3957;48.61947800;9.05303100;2023-07-16T02:41:49;96120.09;;;14.76;100.00
7824;BME280;3957;48.61947800;9.05303100;2023-07-16T02:42:51;96121.72;;;14.77;100.00
7824;BME280;3957;48.61947800;9.05303100;2023-07-16T02:44:05;96123.38;;;14.78;100.00
7824;BME280;3957;48.61947800;9.05303100;2023-07-16T02:45:07;96131.19;;;14.68;100.00
7824;BME280;3957;48.61947800;9.05303100;2023-07-16T02:46:09;96127.53;;;14.62;100.00
7824;BME280;3957;48.61947800;9.05303100;2023-07-16T02:47:11;96134.97;;;14.60;100.00
7824;BME280;3957;48.61947800;9.05303100;2023-07-16T02:48:13;96131.25;;;14.61;100.00
7824;BME280;3957;48.61947800;9.05303100;2023-07-16T02:49:16;96134.41;;;14.58;100.00
7824;BME280;3957;48.61947800;9.05303100;2023-07-16T02:50:17;96132.97;;;14.56;100.00
7824;BME280;3957;48.61947800;9.05303100;2023-07-16T02:51:19;96139.03;;;14.51;100.00
7824;BME280;3957;48.61947800;9.05303100;2023-07-16T02:52:21;96140.91;;;14.51;100.00
7824;BME280;3957;48.61947800;9.05303100;2023-07-16T02:53:22;96138.44;;;14.49;100.00
7824;BME280;3957;48.61947800;9.05303100;2023-07-16T02:54:24;96137.03;;;14.46;100.00
7824;BME280;3957;48.61947800;9.05303100;2023-07-16T02:55:25;96136.00;;;14.48;100.00
7824;BME280;3957;48.61947800;9.05303100;2023-07-16T02:56:27;96140.34;;;14.49;100.00
7824;BME280;3957;48.61947800;9.05303100;2023-07-16T02:57:29;96148.41;;;14.49;100.00
7824;BME280;3957;48.61947800;9.05303100;2023-07-16T02:58:31;96152.97;;;14.48;100.00
7824;BME280;3957;48.61947800;9.05303100;2023-07-16T02:59:34;96158.56;;;14.46;100.00
7824;BME280;3957;48.61947800;9.05303100;2023-07-16T03:00:36;96161.88;;;14.49;100.00
7824;BME280;3957;48.61947800;9.05303100;2023-07-16T03:01:37;96144.66;;;14.50;100.00
7824;BME280;3957;48.61947800;9.05303100;2023-07-16T03:02:39;96138.81;;;14.53;100.00
7824;BME280;3957;48.61947800;9.05303100;2023-07-16T03:03:40;96132.38;;;14.54;100.00
7824;BME280;3957;48.61947800;9.05303100;2023-07-16T03:04:42;96128.19;;;14.58;100.00
7824;BME280;3957;48.61947800;9.05303100;2023-07-16T03:05:43;96125.03;;;14.61;100.00
7824;BME280;3957;48.61947800;9.05303100;2023-07-16T03:06:45;96126.09;;;14.60;100.00
7824;BME280;3957;48.61947800;9.05303100;2023-07-16T03:07:47;96138.59;;;14.54;100.00
7824;BME280;3957;48.61947800;9.05303100;2023-07-16T03:08:51;96140.84;;;14.57;100.00
7824;BME280;3957;48.61947800;9.05303100;2023-07-16T03:09:52;96141.41;;;14.59;100.00
7824;BME280;3957;48.61947800;9.05303100;2023-07-16T03:10:54;96146.56;;;14.61;100.00
7824;BME280;3957;48.61947800;9.05303100;2023-07-16T03:11:56;96153.47;;;14.57;100.00
7824;BME280;3957;48.61947800;9.05303100;2023-07-16T03:12:58;96161.75;;;14.55;100.00
7824;BME280;3957;48.61947800;9.05303100;2023-07-16T03:13:59;96169.25;;;14.53;100.00
7824;BME280;3957;48.61947800;9.05303100;2023-07-16T03:15:02;96162.69;;;14.49;100.00
7824;BME280;3957;48.61947800;9.05303100;2023-07-16T03:16:03;96165.38;;;14.49;100.00
7824;BME280;3957;48.61947800;9.05303100;2023-07-16T03:17:05;96173.00;;;14.52;100.00
7824;BME280;3957;48.61947800;9.05303100;2023-07-16T03:18:08;96183.53;;;14.54;100.00
7824;BME280;3957;48.61947800;9.05303100;2023-07-16T03:19:09;96186.84;;;14.56;100.00
7824;BME280;3957;48.61947800;9.05303100;2023-07-16T03:20:11;96177.91;;;14.55;100.00
7824;BME280;3957;48.61947800;9.05303100;2023-07-16T03:21:15;96176.06;;;14.56;100.00
7824;BME280;3957;48.61947800;9.05303100;2023-07-16T03:22:16;96176.41;;;14.59;100.00
7824;BME280;3957;48.61947800;9.05303100;2023-07-16T03:23:18;96171.88;;;14.60;100.00
7824;BME280;3957;48.61947800;9.05303100;2023-07-16T03:24:20;96174.34;;;14.61;100.00
7824;BME280;3957;48.61947800;9.05303100;2023-07-16T03:25:23;96171.44;;;14.63;100.00
7824;BME280;3957;48.61947800;9.05303100;2023-07-16T03:26:25;96170.97;;;14.66;100.00
7824;BME280;3957;48.61947800;9.05303100;2023-07-16T03:27:27;96173.22;;;14.69;100.00
7824;BME280;3957;48.61947800;9.05303100;2023-07-16T03:28:32;96179.44;;;14.70;100.00
7824;BME280;3957;48.61947800;9.05303100;2023-07-16T03:29:36;96177.56;;;14.70;100.00
7824;BME280;3957;48.61947800;9.05303100;2023-07-16T03:30:39;96182.38;;;14.68;100.00
7824;BME280;3957;48.61947800;9.05303100;2023-07-16T03:31:41;96169.31;;;14.65;100.00
7824;BME280;3957;48.61947800;9.05303100;2023-07-16T03:32:44;96170.75;;;14.68;100.00
7824;BME280;3957;48.61947800;9.05303100;2023-07-16T03:33:57;96178.03;;;14.67;100.00
7824;BME280;3957;48.61947800;9.05303100;2023-07-16T03:35:02;96184.09;;;14.62;100.00
7824;BME280;3957;48.61947800;9.05303100;2023-07-16T03:36:04;96177.91;;;14.55;100.00
7824;BME280;3957;48.61947800;9.05303100;2023-07-16T03:37:05;96171.00;;;14.48;100.00
7824;BME280;3957;48.61947800;9.05303100;2023-07-16T03:38:07;96170.75;;;14.49;100.00
7824;BME280;3957;48.61947800;9.05303100;2023-07-16T03:39:09;96182.13;;;14.51;100.00
7824;BME280;3957;48.61947800;9.05303100;2023-07-16T03:40:15;96198.50;;;14.50;100.00
7824;BME280;3957;48.61947800;9.05303100;2023-07-16T03:41:18;96208.06;;;14.45;100.00
7824;BME280;3957;48.61947800;9.05303100;2023-07-16T03:42:21;96213.63;;;14.51;100.00
7824;BME280;3957;48.61947800;9.05303100;2023-07-16T03:43:24;96215.72;;;14.49;100.00
7824;BME280;3957;48.61947800;9.05303100;2023-07-16T03:44:31;96206.13;;;14.53;100.00
7824;BME280;3957;48.61947800;9.05303100;2023-07-16T03:45:34;96204.72;;;14.50;100.00
7824;BME280;3957;48.61947800;9.05303100;2023-07-16T03:46:36;96198.28;;;14.51;100.00
7824;BME280;3957;48.61947800;9.05303100;2023-07-16T03:47:38;96194.69;;;14.57;100.00
7824;BME280;3957;48.61947800;9.05303100;2023-07-16T03:48:41;96199.03;;;14.58;100.00
7824;BME280;3957;48.61947800;9.05303100;2023-07-16T03:49:42;96212.28;;;14.60;100.00
7824;BME280;3957;48.61947800;9.05303100;2023-07-16T03:50:44;96212.56;;;14.52;100.00
7824;BME280;3957;48.61947800;9.05303100;2023-07-16T03:51:46;96228.13;;;14.50;100.00
7824;BME280;3957;48.61947800;9.05303100;2023-07-16T03:52:48;96228.13;;;14.50;100.00
7824;BME280;3957;48.61947800;9.05303100;2023-07-16T03:53:49;96234.34;;;14.50;100.00
7824;BME280;3957;48.61947800;9.05303100;2023-07-16T03:54:52;96234.78;;;14.47;100.00
7824;BME280;3957;48.61947800;9.05303100;2023-07-16T03:55:55;96227.31;;;14.49;100.00
7824;BME280;3957;48.61947800;9.05303100;2023-07-16T03:56:56;96225.19;;;14.51;100.00
7824;BME280;3957;48.61947800;9.05303100;2023-07-16T03:57:59;96230.59;;;14.51;100.00
7824;BME280;3957;48.61947800;9.05303100;2023-07-16T03:59:00;96230.59;;;14.51;100.00
7824;BME280;3957;48.61947800;9.05303100;2023-07-16T04:00:06;96224.38;;;14.51;100.00
7824;BME280;3957;48.61947800;9.05303100;2023-07-16T04:01:14;96221.00;;;14.55;100.00
7824;BME280;3957;48.61947800;9.05303100;2023-07-16T04:02:16;96216.47;;;14.56;100.00
7824;BME280;3957;48.61947800;9.05303100;2023-07-16T04:03:17;96213.78;;;14.56;100.00
7824;BME280;3957;48.61947800;9.05303100;2023-07-16T04:04:19;96197.72;;;14.61;100.00
7824;BME280;3957;48.61947800;9.05303100;2023-07-16T04:05:21;96200.06;;;14.57;100.00
7824;BME280;3957;48.61947800;9.05303100;2023-07-16T04:06:25;96194.47;;;14.59;100.00
7824;BME280;3957;48.61947800;9.05303100;2023-07-16T04:07:26;96186.38;;;14.59;100.00
7824;BME280;3957;48.61947800;9.05303100;2023-07-16T04:08:28;96197.97;;;14.59;100.00
7824;BME280;3957;48.61947800;9.05303100;2023-07-16T04:09:29;96190.94;;;14.58;100.00
7824;BME280;3957;48.61947800;9.05303100;2023-07-16T04:10:31;96183.69;;;14.59;100.00
7824;BME280;3957;48.61947800;9.05303100;2023-07-16T04:11:33;96191.31;;;14.62;100.00
7824;BME280;3957;48.61947800;9.05303100;2023-07-16T04:12:34;96196.06;;;14.67;100.00
7824;BME280;3957;48.61947800;9.05303100;2023-07-16T04:13:36;96189.16;;;14.71;100.00
7824;BME280;3957;48.61947800;9.05303100;2023-07-16T04:14:37;96196.19;;;14.72;100.00
7824;BME280;3957;48.61947800;9.05303100;2023-07-16T04:15:39;96203.84;;;14.75;100.00
7824;BME280;3957;48.61947800;9.05303100;2023-07-16T04:16:40;96198.78;;;14.78;100.00
7824;BME280;3957;48.61947800;9.05303100;2023-07-16T04:17:42;96201.63;;;14.84;100.00
7824;BME280;3957;48.61947800;9.05303100;2023-07-16T04:18:43;96208.78;;;14.90;100.00
7824;BME280;3957;48.61947800;9.05303100;2023-07-16T04:19:45;96220.41;;;14.90;100.00
7824;BME280;3957;48.61947800;9.05303100;2023-07-16T04:20:47;96221.81;;;14.93;100.00
7824;BME280;3957;48.61947800;9.05303100;2023-07-16T04:21:48;96227.78;;;14.95;100.00
7824;BME280;3957;48.61947800;9.05303100;2023-07-16T04:22:50;96233.19;;;14.95;100.00
7824;BME280;3957;48.61947800;9.05303100;2023-07-16T04:23:51;96241.50;;;14.93;100.00
7824;BME280;3957;48.61947800;9.05303100;2023-07-16T04:24:53;96242.91;;;14.96;100.00
7824;BME280;3957;48.61947800;9.05303100;2023-07-16T04:25:55;96257.44;;;14.95;100.00
7824;BME280;3957;48.61947800;9.05303100;2023-07-16T04:26:58;96252.03;;;14.95;100.00
7824;BME280;3957;48.61947800;9.05303100;2023-07-16T04:28:00;96249.97;;;14.97;100.00
7824;BME280;3957;48.61947800;9.05303100;2023-07-16T04:29:02;96249.59;;;14.93;100.00
7824;BME280;3957;48.61947800;9.05303100;2023-07-16T04:30:04;96255.19;;;14.92;100.00
7824;BME280;3957;48.61947800;9.05303100;2023-07-16T04:31:06;96252.28;;;14.93;100.00
7824;BME280;3957;48.61947800;9.05303100;2023-07-16T04:32:08;96261.16;;;14.94;100.00
7824;BME280;3957;48.61947800;9.05303100;2023-07-16T04:33:09;96259.31;;;14.94;100.00
7824;BME280;3957;48.61947800;9.05303100;2023-07-16T04:34:11;96262.91;;;14.88;100.00
7824;BME280;3957;48.61947800;9.05303100;2023-07-16T04:35:12;96267.41;;;14.94;100.00
7824;BME280;3957;48.61947800;9.05303100;2023-07-16T04:36:15;96272.19;;;14.92;100.00
7824;BME280;3957;48.61947800;9.05303100;2023-07-16T04:37:17;96277.00;;;14.90;100.00
7824;BME280;3957;48.61947800;9.05303100;2023-07-16T04:38:19;96283.56;;;14.94;100.00
7824;BME280;3957;48.61947800;9.05303100;2023-07-16T04:39:20;96278.63;;;14.91;100.00
7824;BME280;3957;48.61947800;9.05303100;2023-07-16T04:40:22;96278.63;;;14.91;100.00
7824;BME280;3957;48.61947800;9.05303100;2023-07-16T04:41:23;96274.88;;;14.92;100.00
7824;BME280;3957;48.61947800;9.05303100;2023-07-16T04:42:25;96269.72;;;14.91;100.00
7824;BME280;3957;48.61947800;9.05303100;2023-07-16T04:43:26;96268.06;;;14.90;100.00
7824;BME280;3957;48.61947800;9.05303100;2023-07-16T04:44:28;96272.03;;;14.87;100.00
7824;BME280;3957;48.61947800;9.05303100;2023-07-16T04:45:30;96267.09;;;14.84;100.00
7824;BME280;3957;48.61947800;9.05303100;2023-07-16T04:46:32;96263.81;;;14.82;100.00
7824;BME280;3957;48.61947800;9.05303100;2023-07-16T04:47:33;96273.19;;;14.79;100.00
7824;BME280;3957;48.61947800;9.05303100;2023-07-16T04:48:35;96259.56;;;14.74;100.00
7824;BME280;3957;48.61947800;9.05303100;2023-07-16T04:49:37;96263.09;;;14.75;100.00
7824;BME280;3957;48.61947800;9.05303100;2023-07-16T04:50:39;96265.56;;;14.76;100.00
7824;BME280;3957;48.61947800;9.05303100;2023-07-16T04:51:40;96267.13;;;14.66;100.00
7824;BME280;3957;48.61947800;9.05303100;2023-07-16T04:52:42;96267.06;;;14.72;100.00
7824;BME280;3957;48.61947800;9.05303100;2023-07-16T04:53:43;96270.19;;;14.69;100.00
7824;BME280;3957;48.61947800;9.05303100;2023-07-16T04:54:45;96273.47;;;14.71;100.00
7824;BME280;3957;48.61947800;9.05303100;2023-07-16T04:55:46;96271.84;;;14.70;100.00
7824;BME280;3957;48.61947800;9.05303100;2023-07-16T04:56:48;96273.09;;;14.68;100.00
7824;BME280;3957;48.61947800;9.05303100;2023-07-16T04:57:49;96276.56;;;14.75;100.00
7824;BME280;3957;48.61947800;9.05303100;2023-07-16T04:58:54;96283.34;;;14.77;100.00
7824;BME280;3957;48.61947800;9.05303100;2023-07-16T04:59:56;96279.31;;;14.68;100.00
7824;BME280;3957;48.61947800;9.05303100;2023-07-16T05:00:58;96284.25;;;14.71;100.00
7824;BME280;3957;48.61947800;9.05303100;2023-07-16T05:01:59;96279.56;;;14.67;100.00